sensor_id;sensor_type;location;lat;lon;timestamp;pressure;altitude;pressure_sealevel;temperature;humidity
71476;BME280;59286;59.274;17.974;2022-10-31T00:00:55;101388.88;;;1.74;86.99
71476;BME280;59286;59.274;17.974;2022-10-31T00:03:21;101341.31;;;1.45;87.24
71476;BME280;59286;59.274;17.974;2022-10-31T00:05:48;101348.75;;;1.53;87.14
71476;BME280;59286;59.274;17.974;2022-10-31T00:08:15;101377.03;;;1.66;86.95
71476;BME280;59286;59.274;17.974;2022-10-31T00:10:41;101370.41;;;1.70;86.70
71476;BME280;59286;59.274;17.974;2022-10-31T00:13:08;101328.03;;;1.42;86.88
71476;BME280;59286;59.274;17.974;2022-10-31T00:15:34;101346.16;;;1.53;87.04
71476;BME280;59286;59.274;17.974;2022-10-31T00:18:01;101378.13;;;1.77;86.86
71476;BME280;59286;59.274;17.974;2022-10-31T00:20:26;101348.75;;;1.53;87.23
71476;BME280;59286;59.274;17.974;2022-10-31T00:22:57;101361.75;;;1.65;86.98
71476;BME280;59286;59.274;17.974;2022-10-31T00:25:24;101378.53;;;1.74;87.30
71476;BME280;59286;59.274;17.974;2022-10-31T00:27:50;101385.50;;;1.73;86.93
71476;BME280;59286;59.274;17.974;2022-10-31T00:30:15;101365.34;;;1.64;87.14
71476;BME280;59286;59.274;17.974;2022-10-31T00:32:41;101351.34;;;1.53;87.04
71476;BME280;59286;59.274;17.974;2022-10-31T00:35:06;101348.13;;;1.58;86.69
71476;BME280;59286;59.274;17.974;2022-10-31T00:37:32;101363.13;;;1.67;86.76
71476;BME280;59286;59.274;17.974;2022-10-31T00:39:57;101356.81;;;1.63;87.14
71476;BME280;59286;59.274;17.974;2022-10-31T00:42:22;101343.75;;;1.58;87.23
71476;BME280;59286;59.274;17.974;2022-10-31T00:44:48;101339.66;;;1.51;86.70
71476;BME280;59286;59.274;17.974;2022-10-31T00:47:13;101355.78;;;1.64;87.00
71476;BME280;59286;59.274;17.974;2022-10-31T00:49:39;101363.69;;;1.69;86.80
71476;BME280;59286;59.274;17.974;2022-10-31T00:52:04;101403.72;;;1.96;86.92
71476;BME280;59286;59.274;17.974;2022-10-31T00:54:29;101383.84;;;1.79;87.57
71476;BME280;59286;59.274;17.974;2022-10-31T00:56:56;101374.72;;;1.76;88.47
71476;BME280;59286;59.274;17.974;2022-10-31T00:59:21;101359.97;;;1.65;89.23
71476;BME280;59286;59.274;17.974;2022-10-31T01:01:47;101328.66;;;1.55;89.17
71476;BME280;59286;59.274;17.974;2022-10-31T01:04:12;101348.53;;;1.73;89.71
71476;BME280;59286;59.274;17.974;2022-10-31T01:06:38;101394.78;;;2.11;90.63
71476;BME280;59286;59.274;17.974;2022-10-31T01:09:03;101337.88;;;1.81;89.67
71476;BME280;59286;59.274;17.974;2022-10-31T01:11:29;101383.13;;;2.20;89.37
71476;BME280;59286;59.274;17.974;2022-10-31T01:13:54;101371.88;;;2.14;89.87
71476;BME280;59286;59.274;17.974;2022-10-31T01:16:22;101343.97;;;2.05;90.01
71476;BME280;59286;59.274;17.974;2022-10-31T01:18:48;101328.16;;;1.94;91.28
71476;BME280;59286;59.274;17.974;2022-10-31T01:21:17;101352.97;;;2.14;91.97
71476;BME280;59286;59.274;17.974;2022-10-31T01:23:43;101372.59;;;2.33;91.86
71476;BME280;59286;59.274;17.974;2022-10-31T01:26:18;101329.81;;;2.19;91.67
71476;BME280;59286;59.274;17.974;2022-10-31T01:28:50;101319.47;;;2.19;91.24
71476;BME280;59286;59.274;17.974;2022-10-31T01:31:17;101315.44;;;2.23;91.95
71476;BME280;59286;59.274;17.974;2022-10-31T01:33:43;101326.63;;;2.35;92.21
71476;BME280;59286;59.274;17.974;2022-10-31T01:38:40;101354.69;;;2.61;92.27
71476;BME280;59286;59.274;17.974;2022-10-31T01:41:06;101345.31;;;2.60;92.97
71476;BME280;59286;59.274;17.974;2022-10-31T01:44:02;101362.66;;;2.71;93.27
71476;BME280;59286;59.274;17.974;2022-10-31T01:46:38;101318.53;;;2.43;93.12
71476;BME280;59286;59.274;17.974;2022-10-31T01:49:11;101381.72;;;2.88;93.47
71476;BME280;59286;59.274;17.974;2022-10-31T01:51:44;101349.28;;;2.74;93.22
71476;BME280;59286;59.274;17.974;2022-10-31T01:54:14;101376.31;;;3.01;94.33
71476;BME280;59286;59.274;17.974;2022-10-31T01:56:42;101347.16;;;2.82;93.26
71476;BME280;59286;59.274;17.974;2022-10-31T01:59:11;101316.44;;;2.63;92.62
71476;BME280;59286;59.274;17.974;2022-10-31T02:01:39;101332.09;;;2.79;93.59
71476;BME280;59286;59.274;17.974;2022-10-31T02:04:06;101378.69;;;3.14;93.37
71476;BME280;59286;59.274;17.974;2022-10-31T02:06:36;101328.25;;;2.82;94.58
71476;BME280;59286;59.274;17.974;2022-10-31T02:09:05;101375.19;;;3.20;94.52
71476;BME280;59286;59.274;17.974;2022-10-31T02:11:32;101356.25;;;3.08;94.50
71476;BME280;59286;59.274;17.974;2022-10-31T02:14:00;101316.75;;;2.89;94.30
71476;BME280;59286;59.274;17.974;2022-10-31T02:16:26;101354.91;;;3.17;93.72
71476;BME280;59286;59.274;17.974;2022-10-31T02:18:52;101360.78;;;3.24;93.33
71476;BME280;59286;59.274;17.974;2022-10-31T02:21:48;101382.84;;;3.38;92.85
71476;BME280;59286;59.274;17.974;2022-10-31T02:24:37;101357.97;;;3.26;93.50
71476;BME280;59286;59.274;17.974;2022-10-31T02:30:18;101358.63;;;3.33;93.55
71476;BME280;59286;59.274;17.974;2022-10-31T02:32:57;101376.66;;;3.39;94.12
71476;BME280;59286;59.274;17.974;2022-10-31T02:35:38;101362.34;;;3.37;93.47
71476;BME280;59286;59.274;17.974;2022-10-31T02:47:03;101375.03;;;3.50;94.51
71476;BME280;59286;59.274;17.974;2022-10-31T02:49:36;101387.66;;;3.58;94.20
71476;BME280;59286;59.274;17.974;2022-10-31T02:52:26;101385.75;;;3.53;93.94
71476;BME280;59286;59.274;17.974;2022-10-31T02:54:53;101391.50;;;3.55;94.33
71476;BME280;59286;59.274;17.974;2022-10-31T02:57:27;101388.09;;;3.55;93.74
71476;BME280;59286;59.274;17.974;2022-10-31T03:00:00;101396.00;;;3.60;92.82
71476;BME280;59286;59.274;17.974;2022-10-31T03:03:19;101373.47;;;3.49;93.96
71476;BME280;59286;59.274;17.974;2022-10-31T03:05:51;101397.09;;;3.64;94.43
71476;BME280;59286;59.274;17.974;2022-10-31T03:11:07;101372.44;;;3.61;93.15
71476;BME280;59286;59.274;17.974;2022-10-31T03:13:45;101388.06;;;3.78;93.19
71476;BME280;59286;59.274;17.974;2022-10-31T03:16:18;101389.19;;;3.82;93.53
71476;BME280;59286;59.274;17.974;2022-10-31T03:19:00;101384.66;;;3.89;94.22
71476;BME280;59286;59.274;17.974;2022-10-31T03:21:32;101368.75;;;3.85;95.48
71476;BME280;59286;59.274;17.974;2022-10-31T03:24:00;101378.16;;;4.03;96.11
71476;BME280;59286;59.274;17.974;2022-10-31T03:26:26;101376.09;;;4.17;95.65
71476;BME280;59286;59.274;17.974;2022-10-31T03:29:07;101345.88;;;4.11;95.88
71476;BME280;59286;59.274;17.974;2022-10-31T03:31:57;101365.97;;;4.32;95.53
71476;BME280;59286;59.274;17.974;2022-10-31T03:34:23;101353.63;;;4.39;95.51
71476;BME280;59286;59.274;17.974;2022-10-31T03:36:51;101378.97;;;4.65;94.98
71476;BME280;59286;59.274;17.974;2022-10-31T03:39:20;101371.50;;;4.68;95.58
71476;BME280;59286;59.274;17.974;2022-10-31T03:41:55;101391.81;;;4.88;96.28
71476;BME280;59286;59.274;17.974;2022-10-31T03:44:23;101352.63;;;4.73;95.62
71476;BME280;59286;59.274;17.974;2022-10-31T03:46:49;101378.56;;;5.06;96.53
71476;BME280;59286;59.274;17.974;2022-10-31T03:49:15;101386.59;;;5.21;96.75
71476;BME280;59286;59.274;17.974;2022-10-31T03:54:46;101368.91;;;5.40;96.05
71476;BME280;59286;59.274;17.974;2022-10-31T03:59:53;101344.66;;;5.56;96.58
71476;BME280;59286;59.274;17.974;2022-10-31T04:02:22;101359.13;;;5.68;96.87
71476;BME280;59286;59.274;17.974;2022-10-31T04:04:51;101372.34;;;5.83;95.79
71476;BME280;59286;59.274;17.974;2022-10-31T04:07:17;101355.94;;;5.83;95.38
71476;BME280;59286;59.274;17.974;2022-10-31T04:09:45;101356.22;;;5.86;95.57
71476;BME280;59286;59.274;17.974;2022-10-31T04:12:14;101325.91;;;5.75;95.78
71476;BME280;59286;59.274;17.974;2022-10-31T04:14:43;101333.34;;;5.88;95.07
71476;BME280;59286;59.274;17.974;2022-10-31T04:17:13;101345.72;;;6.03;95.01
71476;BME280;59286;59.274;17.974;2022-10-31T04:19:39;101334.53;;;6.03;96.04
71476;BME280;59286;59.274;17.974;2022-10-31T04:22:05;101307.94;;;5.96;95.84
71476;BME280;59286;59.274;17.974;2022-10-31T04:24:31;101314.78;;;6.07;96.68
71476;BME280;59286;59.274;17.974;2022-10-31T04:26:57;101352.09;;;6.44;97.06
71476;BME280;59286;59.274;17.974;2022-10-31T04:29:23;101300.59;;;6.19;97.03
71476;BME280;59286;59.274;17.974;2022-10-31T04:31:48;101301.41;;;6.25;96.42
71476;BME280;59286;59.274;17.974;2022-10-31T04:34:14;101296.22;;;6.25;95.65
71476;BME280;59286;59.274;17.974;2022-10-31T04:36:39;101309.88;;;6.42;95.32
71476;BME280;59286;59.274;17.974;2022-10-31T04:39:04;101328.28;;;6.62;95.60
71476;BME280;59286;59.274;17.974;2022-10-31T04:41:30;101331.72;;;6.67;96.36
71476;BME280;59286;59.274;17.974;2022-10-31T04:43:55;101278.66;;;6.42;96.30
71476;BME280;59286;59.274;17.974;2022-10-31T04:46:21;101278.09;;;6.40;96.20
71476;BME280;59286;59.274;17.974;2022-10-31T04:48:46;101333.34;;;6.78;96.13
71476;BME280;59286;59.274;17.974;2022-10-31T04:51:12;101307.97;;;6.64;96.03
71476;BME280;59286;59.274;17.974;2022-10-31T04:53:37;101288.16;;;6.58;95.94
71476;BME280;59286;59.274;17.974;2022-10-31T04:56:02;101286.38;;;6.68;95.70
71476;BME280;59286;59.274;17.974;2022-10-31T04:58:28;101321.97;;;6.90;96.04
71476;BME280;59286;59.274;17.974;2022-10-31T05:00:55;101338.97;;;7.02;95.60
71476;BME280;59286;59.274;17.974;2022-10-31T05:03:21;101312.31;;;6.90;95.89
71476;BME280;59286;59.274;17.974;2022-10-31T05:05:47;101321.47;;;6.98;95.64
71476;BME280;59286;59.274;17.974;2022-10-31T05:08:13;101291.69;;;6.78;96.50
71476;BME280;59286;59.274;17.974;2022-10-31T05:10:38;101304.78;;;6.94;96.41
71476;BME280;59286;59.274;17.974;2022-10-31T05:13:04;101287.28;;;6.89;96.49
71476;BME280;59286;59.274;17.974;2022-10-31T05:15:30;101309.31;;;7.13;96.28
71476;BME280;59286;59.274;17.974;2022-10-31T05:17:56;101276.41;;;6.97;96.79
71476;BME280;59286;59.274;17.974;2022-10-31T05:20:25;101306.44;;;7.15;96.30
71476;BME280;59286;59.274;17.974;2022-10-31T05:22:54;101326.91;;;7.38;96.58
71476;BME280;59286;59.274;17.974;2022-10-31T05:25:21;101280.09;;;7.06;97.01
71476;BME280;59286;59.274;17.974;2022-10-31T05:27:49;101278.00;;;7.08;97.09
71476;BME280;59286;59.274;17.974;2022-10-31T05:30:20;101334.00;;;7.52;96.80
71476;BME280;59286;59.274;17.974;2022-10-31T05:32:48;101310.47;;;7.37;97.64
71476;BME280;59286;59.274;17.974;2022-10-31T05:35:17;101274.41;;;7.19;97.71
71476;BME280;59286;59.274;17.974;2022-10-31T05:37:43;101278.63;;;7.30;97.36
71476;BME280;59286;59.274;17.974;2022-10-31T05:40:10;101271.81;;;7.29;97.39
71476;BME280;59286;59.274;17.974;2022-10-31T05:42:38;101262.97;;;7.25;96.96
71476;BME280;59286;59.274;17.974;2022-10-31T05:45:06;101266.38;;;7.31;97.90
71476;BME280;59286;59.274;17.974;2022-10-31T05:47:31;101262.97;;;7.30;97.72
71476;BME280;59286;59.274;17.974;2022-10-31T05:49:57;101285.44;;;7.46;97.68
71476;BME280;59286;59.274;17.974;2022-10-31T05:52:22;101295.41;;;7.54;97.37
71476;BME280;59286;59.274;17.974;2022-10-31T05:54:47;101288.06;;;7.46;97.83
71476;BME280;59286;59.274;17.974;2022-10-31T05:57:13;101283.63;;;7.42;97.61
71476;BME280;59286;59.274;17.974;2022-10-31T05:59:38;101294.34;;;7.50;97.38
71476;BME280;59286;59.274;17.974;2022-10-31T06:02:04;101284.44;;;7.47;97.28
71476;BME280;59286;59.274;17.974;2022-10-31T06:04:29;101319.19;;;7.73;97.68
71476;BME280;59286;59.274;17.974;2022-10-31T06:06:56;101306.91;;;7.68;97.11
71476;BME280;59286;59.274;17.974;2022-10-31T06:09:21;101288.09;;;7.66;96.76
71476;BME280;59286;59.274;17.974;2022-10-31T06:11:47;101287.63;;;7.69;96.16
71476;BME280;59286;59.274;17.974;2022-10-31T06:14:12;101281.09;;;7.72;96.57
71476;BME280;59286;59.274;17.974;2022-10-31T06:16:37;101286.81;;;7.69;97.15
71476;BME280;59286;59.274;17.974;2022-10-31T06:19:03;101334.66;;;8.00;97.35
71476;BME280;59286;59.274;17.974;2022-10-31T06:21:28;101283.19;;;7.75;96.71
71476;BME280;59286;59.274;17.974;2022-10-31T06:23:54;101294.41;;;7.80;96.32
71476;BME280;59286;59.274;17.974;2022-10-31T06:26:19;101321.84;;;7.98;96.50
71476;BME280;59286;59.274;17.974;2022-10-31T06:28:46;101289.19;;;7.80;96.22
71476;BME280;59286;59.274;17.974;2022-10-31T06:31:11;101301.22;;;7.92;96.24
71476;BME280;59286;59.274;17.974;2022-10-31T06:33:37;101299.13;;;7.94;96.57
71476;BME280;59286;59.274;17.974;2022-10-31T06:36:02;101328.16;;;8.12;96.97
71476;BME280;59286;59.274;17.974;2022-10-31T06:38:28;101275.91;;;7.92;96.37
71476;BME280;59286;59.274;17.974;2022-10-31T06:40:54;101305.16;;;8.04;96.83
71476;BME280;59286;59.274;17.974;2022-10-31T06:43:23;101287.16;;;7.98;97.34
71476;BME280;59286;59.274;17.974;2022-10-31T06:45:48;101279.81;;;7.95;96.68
71476;BME280;59286;59.274;17.974;2022-10-31T06:48:13;101277.22;;;8.00;96.81
71476;BME280;59286;59.274;17.974;2022-10-31T06:50:39;101303.09;;;8.16;97.34
71476;BME280;59286;59.274;17.974;2022-10-31T06:53:05;101297.84;;;8.21;97.04
71476;BME280;59286;59.274;17.974;2022-10-31T06:55:30;101330.28;;;8.45;97.16
71476;BME280;59286;59.274;17.974;2022-10-31T06:58:00;101326.88;;;8.50;96.80
71476;BME280;59286;59.274;17.974;2022-10-31T07:00:28;101328.97;;;8.58;96.89
71476;BME280;59286;59.274;17.974;2022-10-31T07:03:01;101320.59;;;8.51;96.36
71476;BME280;59286;59.274;17.974;2022-10-31T07:05:28;101326.34;;;8.58;96.32
71476;BME280;59286;59.274;17.974;2022-10-31T07:07:59;101329.50;;;8.65;96.51
71476;BME280;59286;59.274;17.974;2022-10-31T07:10:26;101293.72;;;8.40;96.81
71476;BME280;59286;59.274;17.974;2022-10-31T07:13:00;101307.03;;;8.44;96.77
71476;BME280;59286;59.274;17.974;2022-10-31T07:15:27;101343.31;;;8.80;96.75
71476;BME280;59286;59.274;17.974;2022-10-31T07:17:54;101331.84;;;8.61;96.64
71476;BME280;59286;59.274;17.974;2022-10-31T07:20:24;101319.56;;;8.62;96.31
71476;BME280;59286;59.274;17.974;2022-10-31T07:22:49;101313.03;;;8.59;96.64
71476;BME280;59286;59.274;17.974;2022-10-31T07:25:14;101297.59;;;8.58;96.47
71476;BME280;59286;59.274;17.974;2022-10-31T07:27:42;101289.25;;;8.51;96.47
71476;BME280;59286;59.274;17.974;2022-10-31T07:30:09;101350.34;;;8.90;96.43
71476;BME280;59286;59.274;17.974;2022-10-31T07:32:42;101325.81;;;8.71;96.48
71476;BME280;59286;59.274;17.974;2022-10-31T07:35:09;101319.03;;;8.70;96.75
71476;BME280;59286;59.274;17.974;2022-10-31T07:37:38;101316.94;;;8.72;96.63
71476;BME280;59286;59.274;17.974;2022-10-31T07:40:04;101324.50;;;8.78;96.60
71476;BME280;59286;59.274;17.974;2022-10-31T07:42:38;101302.03;;;8.72;96.51
71476;BME280;59286;59.274;17.974;2022-10-31T07:45:04;101305.19;;;8.74;96.69
71476;BME280;59286;59.274;17.974;2022-10-31T07:47:39;101319.53;;;8.87;96.50
71476;BME280;59286;59.274;17.974;2022-10-31T07:50:06;101340.69;;;9.01;95.92
71476;BME280;59286;59.274;17.974;2022-10-31T07:52:32;101335.44;;;8.96;96.93
71476;BME280;59286;59.274;17.974;2022-10-31T07:54:57;101309.59;;;8.79;96.74
71476;BME280;59286;59.274;17.974;2022-10-31T07:57:23;101326.56;;;8.97;97.03
71476;BME280;59286;59.274;17.974;2022-10-31T07:59:48;101300.47;;;8.82;97.12
71476;BME280;59286;59.274;17.974;2022-10-31T08:02:14;101317.38;;;8.99;97.33
71476;BME280;59286;59.274;17.974;2022-10-31T08:04:39;101311.13;;;8.95;98.14
71476;BME280;59286;59.274;17.974;2022-10-31T08:07:04;101320.78;;;9.05;97.51
71476;BME280;59286;59.274;17.974;2022-10-31T08:09:30;101325.50;;;8.98;97.85
71476;BME280;59286;59.274;17.974;2022-10-31T08:11:55;101323.66;;;9.03;97.87
71476;BME280;59286;59.274;17.974;2022-10-31T08:14:21;101332.28;;;9.09;97.96
71476;BME280;59286;59.274;17.974;2022-10-31T08:16:47;101334.38;;;9.12;98.09
71476;BME280;59286;59.274;17.974;2022-10-31T08:19:13;101317.91;;;9.06;97.72
71476;BME280;59286;59.274;17.974;2022-10-31T08:21:38;101357.84;;;9.32;97.80
71476;BME280;59286;59.274;17.974;2022-10-31T08:24:04;101331.47;;;9.18;98.16
71476;BME280;59286;59.274;17.974;2022-10-31T08:26:29;101332.75;;;9.26;97.80
71476;BME280;59286;59.274;17.974;2022-10-31T08:28:55;101318.88;;;9.30;97.78
71476;BME280;59286;59.274;17.974;2022-10-31T08:31:21;101299.53;;;9.21;97.83
71476;BME280;59286;59.274;17.974;2022-10-31T08:33:48;101304.53;;;9.18;97.88
71476;BME280;59286;59.274;17.974;2022-10-31T08:36:13;101335.59;;;9.34;98.14
71476;BME280;59286;59.274;17.974;2022-10-31T08:38:41;101312.38;;;9.23;98.19
71476;BME280;59286;59.274;17.974;2022-10-31T08:41:06;101334.56;;;9.35;98.17
71476;BME280;59286;59.274;17.974;2022-10-31T08:43:32;101328.00;;;9.38;97.83
71476;BME280;59286;59.274;17.974;2022-10-31T08:45:57;101324.06;;;9.40;97.84
71476;BME280;59286;59.274;17.974;2022-10-31T08:48:22;101359.78;;;9.70;97.50
71476;BME280;59286;59.274;17.974;2022-10-31T08:50:48;101324.53;;;9.47;97.03
71476;BME280;59286;59.274;17.974;2022-10-31T08:53:15;101327.41;;;9.56;97.19
71476;BME280;59286;59.274;17.974;2022-10-31T08:55:42;101324.25;;;9.59;96.90
71476;BME280;59286;59.274;17.974;2022-10-31T08:58:14;101355.06;;;9.77;97.28
71476;BME280;59286;59.274;17.974;2022-10-31T09:00:41;101318.25;;;9.53;97.23
71476;BME280;59286;59.274;17.974;2022-10-31T09:03:13;101362.56;;;9.89;97.21
71476;BME280;59286;59.274;17.974;2022-10-31T09:05:39;101359.72;;;9.85;97.59
71476;BME280;59286;59.274;17.974;2022-10-31T09:08:05;101356.81;;;9.87;97.56
71476;BME280;59286;59.274;17.974;2022-10-31T09:10:33;101311.38;;;9.62;97.24
71476;BME280;59286;59.274;17.974;2022-10-31T09:13:02;101354.69;;;9.94;97.10
71476;BME280;59286;59.274;17.974;2022-10-31T09:15:32;101310.84;;;9.70;96.65
71476;BME280;59286;59.274;17.974;2022-10-31T09:17:58;101322.84;;;9.76;96.09
71476;BME280;59286;59.274;17.974;2022-10-31T09:20:23;101348.44;;;9.90;96.56
71476;BME280;59286;59.274;17.974;2022-10-31T09:22:57;101336.97;;;9.75;97.00
71476;BME280;59286;59.274;17.974;2022-10-31T09:25:23;101338.53;;;9.82;97.16
71476;BME280;59286;59.274;17.974;2022-10-31T09:27:49;101344.28;;;9.84;97.10
71476;BME280;59286;59.274;17.974;2022-10-31T09:30:14;101332.28;;;9.72;97.67
71476;BME280;59286;59.274;17.974;2022-10-31T09:32:40;101325.94;;;9.84;97.44
71476;BME280;59286;59.274;17.974;2022-10-31T09:35:06;101333.75;;;9.94;97.37
71476;BME280;59286;59.274;17.974;2022-10-31T09:37:31;101326.41;;;9.96;97.14
71476;BME280;59286;59.274;17.974;2022-10-31T09:39:56;101362.94;;;10.21;97.10
71476;BME280;59286;59.274;17.974;2022-10-31T09:47:40;101372.69;;;10.49;96.36
71476;BME280;59286;59.274;17.974;2022-10-31T09:50:42;101365.38;;;10.46;96.69
71476;BME280;59286;59.274;17.974;2022-10-31T09:53:24;101346.28;;;10.40;96.54
71476;BME280;59286;59.274;17.974;2022-10-31T09:55:52;101334.06;;;10.26;96.44
71476;BME280;59286;59.274;17.974;2022-10-31T09:58:27;101325.16;;;10.27;96.60
71476;BME280;59286;59.274;17.974;2022-10-31T10:00:58;101357.94;;;10.58;96.43
71476;BME280;59286;59.274;17.974;2022-10-31T10:03:44;101374.56;;;10.77;96.61
71476;BME280;59286;59.274;17.974;2022-10-31T10:06:18;101381.34;;;10.78;96.23
71476;BME280;59286;59.274;17.974;2022-10-31T10:08:45;101357.84;;;10.68;96.27
71476;BME280;59286;59.274;17.974;2022-10-31T10:22:12;101362.31;;;10.96;96.05
71476;BME280;59286;59.274;17.974;2022-10-31T10:27:23;101370.72;;;10.93;96.60
71476;BME280;59286;59.274;17.974;2022-10-31T10:30:11;101357.88;;;10.92;96.33
71476;BME280;59286;59.274;17.974;2022-10-31T10:32:58;101337.84;;;10.77;96.56
71476;BME280;59286;59.274;17.974;2022-10-31T10:35:34;101362.34;;;10.91;96.57
71476;BME280;59286;59.274;17.974;2022-10-31T10:40:41;101323.06;;;10.57;97.17
71476;BME280;59286;59.274;17.974;2022-10-31T10:43:21;101343.09;;;10.77;97.20
71476;BME280;59286;59.274;17.974;2022-10-31T10:45:59;101366.53;;;10.92;97.18
71476;BME280;59286;59.274;17.974;2022-10-31T10:59:37;101369.34;;;11.01;97.07
71476;BME280;59286;59.274;17.974;2022-10-31T11:02:08;101336.47;;;10.85;97.23
71476;BME280;59286;59.274;17.974;2022-10-31T11:04:40;101334.88;;;10.84;97.03
71476;BME280;59286;59.274;17.974;2022-10-31T11:07:09;101336.19;;;10.86;97.00
71476;BME280;59286;59.274;17.974;2022-10-31T11:09:36;101346.28;;;10.98;97.07
71476;BME280;59286;59.274;17.974;2022-10-31T11:12:08;101354.28;;;11.11;96.73
71476;BME280;59286;59.274;17.974;2022-10-31T11:14:46;101325.09;;;10.94;96.98
71476;BME280;59286;59.274;17.974;2022-10-31T11:17:22;101381.13;;;11.27;96.82
71476;BME280;59286;59.274;17.974;2022-10-31T11:20:00;101325.03;;;10.99;96.61
71476;BME280;59286;59.274;17.974;2022-10-31T11:22:26;101340.66;;;11.09;96.14
71476;BME280;59286;59.274;17.974;2022-10-31T11:24:51;101368.75;;;11.32;96.14
71476;BME280;59286;59.274;17.974;2022-10-31T11:27:21;101341.66;;;11.13;96.00
71476;BME280;59286;59.274;17.974;2022-10-31T11:29:48;101348.81;;;11.31;96.13
71476;BME280;59286;59.274;17.974;2022-10-31T11:32:24;101370.47;;;11.42;95.83
71476;BME280;59286;59.274;17.974;2022-10-31T11:34:54;101350.88;;;11.34;95.60
71476;BME280;59286;59.274;17.974;2022-10-31T11:37:25;101344.09;;;11.28;95.55
71476;BME280;59286;59.274;17.974;2022-10-31T11:39:55;101369.13;;;11.44;95.72
71476;BME280;59286;59.274;17.974;2022-10-31T11:42:42;101338.63;;;11.25;95.25
71476;BME280;59286;59.274;17.974;2022-10-31T11:45:36;101339.31;;;11.35;95.28
71476;BME280;59286;59.274;17.974;2022-10-31T11:48:02;101343.94;;;11.43;94.97
71476;BME280;59286;59.274;17.974;2022-10-31T11:50:41;101351.25;;;11.46;94.64
71476;BME280;59286;59.274;17.974;2022-10-31T11:53:49;101314.69;;;11.31;94.82
71476;BME280;59286;59.274;17.974;2022-10-31T11:56:15;101312.28;;;11.35;95.07
71476;BME280;59286;59.274;17.974;2022-10-31T11:58:41;101346.31;;;11.63;95.15
71476;BME280;59286;59.274;17.974;2022-10-31T12:01:24;101307.13;;;11.48;95.02
71476;BME280;59286;59.274;17.974;2022-10-31T12:04:10;101352.34;;;11.88;94.66
71476;BME280;59286;59.274;17.974;2022-10-31T12:06:41;101308.34;;;11.56;94.79
71476;BME280;59286;59.274;17.974;2022-10-31T12:09:26;101337.19;;;11.80;94.65
71476;BME280;59286;59.274;17.974;2022-10-31T12:12:22;101321.28;;;11.71;94.52
71476;BME280;59286;59.274;17.974;2022-10-31T12:25:41;101353.88;;;12.26;94.51
71476;BME280;59286;59.274;17.974;2022-10-31T12:28:46;101352.16;;;12.35;93.68
71476;BME280;59286;59.274;17.974;2022-10-31T12:31:16;101349.22;;;12.36;93.25
71476;BME280;59286;59.274;17.974;2022-10-31T12:45:11;101355.94;;;12.61;93.09
71476;BME280;59286;59.274;17.974;2022-10-31T12:53:28;101351.44;;;12.61;91.96
71476;BME280;59286;59.274;17.974;2022-10-31T12:58:36;101334.19;;;12.55;91.95
71476;BME280;59286;59.274;17.974;2022-10-31T13:01:17;101337.03;;;12.59;92.06
71476;BME280;59286;59.274;17.974;2022-10-31T13:03:51;101332.34;;;12.56;91.89
71476;BME280;59286;59.274;17.974;2022-10-31T13:06:23;101318.78;;;12.49;92.01
71476;BME280;59286;59.274;17.974;2022-10-31T13:08:54;101340.25;;;12.56;91.66
71476;BME280;59286;59.274;17.974;2022-10-31T13:11:30;101326.69;;;12.49;91.81
71476;BME280;59286;59.274;17.974;2022-10-31T13:16:45;101321.69;;;12.34;91.91
71476;BME280;59286;59.274;17.974;2022-10-31T13:19:29;101308.59;;;12.29;91.77
71476;BME280;59286;59.274;17.974;2022-10-31T13:22:22;101316.47;;;12.29;91.71
71476;BME280;59286;59.274;17.974;2022-10-31T13:24:57;101336.00;;;12.41;91.96
71476;BME280;59286;59.274;17.974;2022-10-31T13:27:27;101293.44;;;12.07;92.25
71476;BME280;59286;59.274;17.974;2022-10-31T13:30:04;101331.25;;;12.43;92.01
71476;BME280;59286;59.274;17.974;2022-10-31T13:32:41;101339.91;;;12.44;91.76
71476;BME280;59286;59.274;17.974;2022-10-31T13:35:23;101333.69;;;12.40;91.89
71476;BME280;59286;59.274;17.974;2022-10-31T13:38:09;101354.72;;;12.53;92.14
71476;BME280;59286;59.274;17.974;2022-10-31T13:40:51;101357.06;;;12.55;92.13
71476;BME280;59286;59.274;17.974;2022-10-31T13:43:31;101321.38;;;12.35;92.31
71476;BME280;59286;59.274;17.974;2022-10-31T13:45:58;101294.28;;;12.21;91.83
71476;BME280;59286;59.274;17.974;2022-10-31T13:51:00;101311.06;;;12.39;91.97
71476;BME280;59286;59.274;17.974;2022-10-31T13:53:39;101311.94;;;12.34;92.07
71476;BME280;59286;59.274;17.974;2022-10-31T13:58:32;101324.31;;;12.34;92.11
71476;BME280;59286;59.274;17.974;2022-10-31T14:03:33;101321.00;;;12.42;92.00
71476;BME280;59286;59.274;17.974;2022-10-31T14:06:00;101314.28;;;12.36;91.83
71476;BME280;59286;59.274;17.974;2022-10-31T14:08:27;101340.34;;;12.51;91.76
71476;BME280;59286;59.274;17.974;2022-10-31T14:10:54;101303.91;;;12.26;91.98
71476;BME280;59286;59.274;17.974;2022-10-31T14:13:24;101310.38;;;12.33;92.19
71476;BME280;59286;59.274;17.974;2022-10-31T14:15:58;101287.66;;;12.24;91.75
71476;BME280;59286;59.274;17.974;2022-10-31T14:18:34;101310.16;;;12.30;91.85
71476;BME280;59286;59.274;17.974;2022-10-31T14:21:00;101342.38;;;12.54;92.07
71476;BME280;59286;59.274;17.974;2022-10-31T14:23:38;101349.28;;;12.50;92.28
71476;BME280;59286;59.274;17.974;2022-10-31T14:28:51;101333.59;;;12.45;92.28
71476;BME280;59286;59.274;17.974;2022-10-31T14:31:36;101337.16;;;12.35;92.31
71476;BME280;59286;59.274;17.974;2022-10-31T14:40:02;101333.69;;;12.40;92.57
71476;BME280;59286;59.274;17.974;2022-10-31T14:48:06;101285.94;;;12.01;92.83
71476;BME280;59286;59.274;17.974;2022-10-31T14:50:51;101287.56;;;11.97;92.70
71476;BME280;59286;59.274;17.974;2022-10-31T14:53:26;101277.09;;;11.78;92.91